Terminal Aerodrome Forecast
Issued by NWS Nashville, TN

Home | Current Version | Previous Version | Text Only | Print | Product List | Glossary On
Versions: 1 2 3 4 5 6 7 8 9 10 11 12 13 14 15 16 17 18 19 20 21 22 23 24 25 26 27 28 29 30 31 32 33 34 35 36 37
927
FTUS44 KOHX 190539 AAB
TAFBNA
TAF AMD
KBNA 190539Z 1906/2006 32008G20KT P6SM SCT025 OVC035
     FM190900 32010KT P6SM SCT025
     FM191700 32010KT P6SM SKC
     FM200000 33005KT P6SM SKC=

USA.gov is the U.S. government's official web portal to all federal, state and local government web resources and services.